Main page
METAR-TAF:

METAR-TAF

Airports :

Riga, Latvia

Riga International Airport

latitude: 56-55N, longitude: 023-58E, elevation: 10 m

Current weather observation

The report was made 38 minutes ago, at 09:20 UTC
Wind 5 kt from the South/Southeast, varying between Southeast and South/Southwest
Temperature -1°C
Humidity 100%
Pressure 1021 hPa
Visibility: 8000 m
Overcast at a height of 200 ft

METAR: EVRA 220920Z 16005KT 140V210 8000 OVC002 M01/M01 Q1021 R18/090095 BECMG BKN005

Time: 12:58 (09:58 UTC)

Forecast

The report was made 1 hour and 58 minutes ago, at 08:00 UTC
Forecast valid from 22 at 09 UTC to 23 at 09 UTC
Wind 7 kt from the Southeast
Visibility: 4000 m
Overcast at a height of 100 ft
mist
Temporary
from 22 at 09 UTC to 22 at 10 UTC
Visibility: 1500 m
Overcast at a height of 300 ft
Becoming
from 22 at 10 UTC to 22 at 12 UTC
Visibility: 9000 m
Scattered clouds at a height of 300 ft

TAF: EVRA 220800Z 2209/2309 13007KT 4000 BR OVC001 TEMPO 2209/2210 1500 OVC003 BECMG 2210/2212 9000 NSW SCT003

Weather observations and forecasts of more than 4000 airports (METAR and TAF reports).

The available stations are represented by yellow and red dots on the map.

Hover mouse over dot to see the name of the station.

Then click to see weather observations and forecasts.

To change the map : click on the green buttons with a black cross to zoom in, on the green button with a dash to zoom out, or on the green arrows for adjacent maps.


METAR-TAF: